createdAt,value
2022-12-12T00:01:27.860Z,55.64
2022-12-12T00:03:54.772Z,55.46
2022-12-12T00:06:22.461Z,55.75
2022-12-12T00:08:49.561Z,55.07
2022-12-12T00:11:16.577Z,55.09
2022-12-12T00:13:43.642Z,54.61
2022-12-12T00:16:11.254Z,55.00
2022-12-12T00:18:38.199Z,55.16
2022-12-12T00:21:08.039Z,54.85
2022-12-12T00:23:34.692Z,54.37
2022-12-12T00:26:06.403Z,54.58
2022-12-12T00:28:33.683Z,55.33
2022-12-12T00:31:00.627Z,54.84
2022-12-12T00:33:27.425Z,55.38
2022-12-12T00:35:55.386Z,55.74
2022-12-12T00:38:23.582Z,56.39
2022-12-12T00:40:55.073Z,56.35
2022-12-12T00:43:21.749Z,56.66
2022-12-12T00:45:48.307Z,56.73
2022-12-12T00:48:15.118Z,56.67
2022-12-12T00:50:41.761Z,56.61
2022-12-12T00:53:08.726Z,57.14
2022-12-12T00:55:35.999Z,57.17
2022-12-12T00:58:02.791Z,56.82
2022-12-12T01:00:29.531Z,56.51
2022-12-12T01:02:57.862Z,56.91
2022-12-12T01:05:25.838Z,56.74
2022-12-12T01:07:52.991Z,56.75
2022-12-12T01:10:20.634Z,57.48
2022-12-12T01:12:47.355Z,58.52
2022-12-12T01:15:14.434Z,58.57
2022-12-12T01:17:41.238Z,59.36
2022-12-12T01:20:17.313Z,59.45
2022-12-12T01:22:44.136Z,59.75
2022-12-12T01:25:12.644Z,60.63
2022-12-12T01:27:39.575Z,59.82
2022-12-12T01:30:07.552Z,59.83
2022-12-12T01:32:34.539Z,60.25
2022-12-12T01:35:01.269Z,60.74
2022-12-12T01:37:28.157Z,60.45
2022-12-12T01:39:54.887Z,60.66
2022-12-12T01:42:23.526Z,60.77
2022-12-12T01:44:52.679Z,60.09
2022-12-12T01:47:22.313Z,60.24
2022-12-12T01:50:08.220Z,60.34
2022-12-12T01:52:43.158Z,60.68
2022-12-12T01:55:15.718Z,60.30
2022-12-12T01:57:47.272Z,60.71
2022-12-12T02:00:15.621Z,61.12
2022-12-12T02:02:46.278Z,61.39
2022-12-12T02:05:23.090Z,61.44
2022-12-12T02:07:50.159Z,61.03
2022-12-12T02:10:16.825Z,60.99
2022-12-12T02:12:43.669Z,60.73
2022-12-12T02:15:11.148Z,60.74
2022-12-12T02:17:46.505Z,60.43
2022-12-12T02:20:44.348Z,60.94
2022-12-12T02:23:55.651Z,61.04
2022-12-12T02:26:44.073Z,61.36
2022-12-12T02:29:28.735Z,61.33
2022-12-12T02:32:05.053Z,60.68
2022-12-12T02:35:31.083Z,60.81
2022-12-12T02:38:15.095Z,61.70
2022-12-12T02:40:55.892Z,60.80
2022-12-12T02:43:33.574Z,60.80
2022-12-12T02:46:26.842Z,61.78
2022-12-12T02:49:18.812Z,61.26
2022-12-12T02:51:46.130Z,61.38
2022-12-12T02:54:19.502Z,60.82
2022-12-12T02:56:47.600Z,61.04
2022-12-12T02:59:31.573Z,61.02
2022-12-12T03:02:33.005Z,60.99
2022-12-12T03:05:39.743Z,60.21
2022-12-12T03:08:52.903Z,59.73
2022-12-12T03:11:26.531Z,60.19
2022-12-12T03:13:58.960Z,59.51
2022-12-12T03:16:32.738Z,59.32
2022-12-12T03:19:24.382Z,58.40
2022-12-12T03:22:00.250Z,58.41
2022-12-12T03:24:38.561Z,57.50
2022-12-12T03:27:16.705Z,57.57
2022-12-12T03:29:48.341Z,56.89
2022-12-12T03:32:24.684Z,57.40
2022-12-12T03:35:09.739Z,56.62
2022-12-12T03:37:46.044Z,56.70
2022-12-12T03:40:25.152Z,56.52
2022-12-12T03:43:06.843Z,56.80
2022-12-12T03:45:47.688Z,55.85
2022-12-12T03:48:17.370Z,55.04
2022-12-12T03:50:55.079Z,55.36
2022-12-12T03:53:39.168Z,55.84
2022-12-12T03:56:11.705Z,55.28
2022-12-12T03:58:47.232Z,55.71
2022-12-12T04:01:15.143Z,55.63
2022-12-12T04:04:09.672Z,55.35
2022-12-12T04:06:41.988Z,55.26
2022-12-12T04:09:48.483Z,55.42
2022-12-12T04:12:37.697Z,56.13
2022-12-12T04:15:12.330Z,56.30
2022-12-12T04:17:49.544Z,55.94
2022-12-12T04:20:45.743Z,56.18
2022-12-12T04:23:27.377Z,55.79
2022-12-12T04:26:12.610Z,55.63
2022-12-12T04:28:44.158Z,56.28
2022-12-12T04:31:12.977Z,55.96
2022-12-12T04:33:45.778Z,55.65
2022-12-12T04:36:16.347Z,55.87
2022-12-12T04:38:46.678Z,56.41
2022-12-12T04:41:16.435Z,56.70
2022-12-12T04:43:44.392Z,56.45
2022-12-12T04:46:20.219Z,56.49
2022-12-12T04:48:53.702Z,56.82
2022-12-12T04:51:29.788Z,56.27
2022-12-12T04:54:13.561Z,56.49
2022-12-12T04:56:45.492Z,56.35
2022-12-12T04:59:12.744Z,56.57
2022-12-12T05:02:02.650Z,56.20
2022-12-12T05:04:43.611Z,56.51
2022-12-12T05:07:20.073Z,56.04
2022-12-12T05:09:48.238Z,55.84
2022-12-12T05:12:16.385Z,55.91
2022-12-12T05:14:43.122Z,55.87
2022-12-12T05:17:13.905Z,55.94
2022-12-12T05:19:40.558Z,55.75
2022-12-12T05:22:07.222Z,56.00
2022-12-12T05:24:33.749Z,55.72
2022-12-12T05:27:00.722Z,56.09
2022-12-12T05:29:27.392Z,56.10
2022-12-12T05:31:53.975Z,55.98
2022-12-12T05:34:20.578Z,56.32
2022-12-12T05:36:48.096Z,56.02
2022-12-12T05:39:14.718Z,56.68
2022-12-12T05:41:41.368Z,56.60
2022-12-12T05:44:07.947Z,56.27
2022-12-12T05:46:34.753Z,55.93
2022-12-12T05:49:02.047Z,56.53
2022-12-12T05:51:28.799Z,56.47
2022-12-12T05:53:55.595Z,56.23
2022-12-12T05:56:22.199Z,55.98
2022-12-12T05:58:49.152Z,55.89
2022-12-12T06:01:15.936Z,56.29
2022-12-12T06:03:42.646Z,56.21
2022-12-12T06:06:09.270Z,56.34
2022-12-12T06:08:36.006Z,55.77
2022-12-12T06:11:07.921Z,55.78
2022-12-12T06:13:34.944Z,56.07
2022-12-12T06:16:06.661Z,56.13
2022-12-12T06:18:33.430Z,55.64
2022-12-12T06:21:09.784Z,56.18
2022-12-12T06:23:40.643Z,55.61
2022-12-12T06:26:08.976Z,55.27
2022-12-12T06:28:36.305Z,55.53
2022-12-12T06:31:06.867Z,56.03
2022-12-12T06:33:38.435Z,56.20
2022-12-12T06:36:07.865Z,55.90
2022-12-12T06:38:35.634Z,55.18
2022-12-12T06:41:10.678Z,56.06
2022-12-12T06:43:37.240Z,55.75
2022-12-12T06:46:05.676Z,55.99
2022-12-12T06:48:34.204Z,57.34
2022-12-12T06:51:06.334Z,58.96
2022-12-12T06:53:33.087Z,59.11
2022-12-12T06:55:59.764Z,58.33
2022-12-12T06:58:26.399Z,57.14
2022-12-12T07:00:53.702Z,57.85
2022-12-12T07:03:20.392Z,57.87
2022-12-12T07:05:47.623Z,57.98
2022-12-12T07:08:15.368Z,57.86
2022-12-12T07:10:42.508Z,58.28
2022-12-12T07:13:09.214Z,58.19
2022-12-12T07:15:45.561Z,57.24
2022-12-12T07:18:13.140Z,56.31
2022-12-12T07:20:45.000Z,55.69
2022-12-12T07:23:12.236Z,56.27
2022-12-12T07:25:40.838Z,55.77
2022-12-12T07:28:08.453Z,56.30
2022-12-12T07:30:35.093Z,56.97
2022-12-12T07:33:01.682Z,56.88
2022-12-12T07:35:28.530Z,57.57
2022-12-12T07:37:56.520Z,57.74
2022-12-12T07:40:23.655Z,57.13
2022-12-12T07:42:50.377Z,56.90
2022-12-12T07:45:18.613Z,57.19
2022-12-12T07:47:45.648Z,57.70
2022-12-12T07:50:12.700Z,57.56
2022-12-12T07:52:39.310Z,57.52
2022-12-12T07:55:06.786Z,57.50
2022-12-12T07:57:33.639Z,58.30
2022-12-12T08:00:00.361Z,58.50
2022-12-12T08:02:26.984Z,58.40
2022-12-12T08:04:53.628Z,58.63
2022-12-12T08:07:20.299Z,59.14
2022-12-12T08:09:47.015Z,58.85
2022-12-12T08:12:13.746Z,59.33
2022-12-12T08:14:40.413Z,59.08
2022-12-12T08:17:07.135Z,59.35
2022-12-12T08:19:33.796Z,60.29
2022-12-12T08:22:00.392Z,59.08
2022-12-12T08:24:28.627Z,58.58
2022-12-12T08:26:55.708Z,58.46
2022-12-12T08:29:22.965Z,57.11
2022-12-12T08:31:50.085Z,56.29
2022-12-12T08:34:17.686Z,56.01
2022-12-12T08:36:45.208Z,55.61
2022-12-12T08:39:14.279Z,55.13
2022-12-12T08:41:42.868Z,56.12
2022-12-12T08:44:12.021Z,56.06
2022-12-12T08:46:39.450Z,56.07
2022-12-12T08:49:06.383Z,55.81
2022-12-12T08:51:34.182Z,54.20
2022-12-12T08:54:00.861Z,53.98
2022-12-12T08:56:27.578Z,53.10
2022-12-12T08:58:54.443Z,52.93
2022-12-12T09:01:23.888Z,52.35
2022-12-12T09:03:51.740Z,52.77
2022-12-12T09:06:18.982Z,52.42
2022-12-12T09:08:46.325Z,52.37
2022-12-12T09:11:13.191Z,52.33
2022-12-12T09:13:40.595Z,51.65
2022-12-12T09:16:09.011Z,51.65
2022-12-12T09:18:36.948Z,51.85
2022-12-12T09:21:04.406Z,51.18
2022-12-12T09:23:31.316Z,50.70
2022-12-12T09:25:57.922Z,51.00
2022-12-12T09:28:26.230Z,50.83
2022-12-12T09:30:52.928Z,50.59
2022-12-12T09:33:19.865Z,50.68
2022-12-12T09:35:46.403Z,50.36
2022-12-12T09:38:14.831Z,51.04
2022-12-12T09:41:20.321Z,51.21
2022-12-12T09:43:59.825Z,51.89
2022-12-12T09:46:47.189Z,53.14
2022-12-12T09:49:27.404Z,53.48
2022-12-12T09:51:55.213Z,54.75
2022-12-12T09:54:25.544Z,54.64
2022-12-12T09:57:32.804Z,55.04
2022-12-12T10:00:05.440Z,55.64
2022-12-12T10:02:56.618Z,56.53
2022-12-12T10:05:41.275Z,56.40
2022-12-12T10:08:40.170Z,54.79
2022-12-12T10:11:32.979Z,54.75
2022-12-12T10:14:02.726Z,55.53
2022-12-12T10:16:31.709Z,55.21
2022-12-12T10:19:09.073Z,54.54
2022-12-12T10:21:40.781Z,54.84
2022-12-12T10:24:30.246Z,54.28
2022-12-12T10:26:58.476Z,54.54
2022-12-12T10:29:26.553Z,53.57
2022-12-12T10:32:08.021Z,53.60
2022-12-12T10:34:51.653Z,52.89
2022-12-12T10:37:46.544Z,53.17
2022-12-12T10:40:41.240Z,52.59
2022-12-12T10:43:20.073Z,53.11
2022-12-12T10:46:11.818Z,52.55
2022-12-12T10:48:39.875Z,52.16
2022-12-12T10:51:11.984Z,52.79
2022-12-12T10:53:42.129Z,53.11
2022-12-12T10:56:13.324Z,52.98
2022-12-12T10:58:52.130Z,54.20
2022-12-12T11:01:38.377Z,53.87
2022-12-12T11:04:08.901Z,54.85
2022-12-12T11:06:45.156Z,55.33
2022-12-12T11:09:15.105Z,55.25
2022-12-12T11:12:05.343Z,55.18
2022-12-12T11:14:34.358Z,53.57
2022-12-12T11:17:01.111Z,51.54
2022-12-12T11:19:35.773Z,50.79
2022-12-12T11:22:04.795Z,50.63
2022-12-12T11:24:34.846Z,49.88
2022-12-12T11:27:05.679Z,49.72
2022-12-12T11:29:44.352Z,50.02
2022-12-12T11:32:37.713Z,49.46
2022-12-12T11:35:21.931Z,48.80
2022-12-12T11:37:51.427Z,48.97
2022-12-12T11:40:33.786Z,47.99
2022-12-12T11:43:26.217Z,47.98
2022-12-12T11:46:08.175Z,48.41
2022-12-12T11:48:36.784Z,49.25
2022-12-12T11:51:03.676Z,49.06
2022-12-12T11:53:35.177Z,49.25
2022-12-12T11:56:23.570Z,46.84
2022-12-12T11:59:18.172Z,41.08
2022-12-12T12:01:59.938Z,43.54
2022-12-12T12:04:51.274Z,45.87
2022-12-12T12:07:42.364Z,46.85
2022-12-12T12:10:24.012Z,46.43
2022-12-12T12:13:12.127Z,46.08
2022-12-12T12:16:20.674Z,47.43
2022-12-12T12:19:18.398Z,48.52
2022-12-12T12:22:16.083Z,49.22
2022-12-12T12:24:48.679Z,48.43
2022-12-12T12:27:45.278Z,48.60
2022-12-12T12:30:18.161Z,48.39
2022-12-12T12:32:57.028Z,49.59
2022-12-12T12:35:37.796Z,49.25
2022-12-12T12:38:25.868Z,49.23
2022-12-12T12:41:20.545Z,48.25
2022-12-12T12:44:03.831Z,48.04
2022-12-12T12:47:05.552Z,48.40
2022-12-12T12:49:53.162Z,48.37
2022-12-12T12:52:31.225Z,49.13
2022-12-12T12:54:59.708Z,49.00
2022-12-12T12:57:39.202Z,48.24
2022-12-12T13:00:20.773Z,49.47
2022-12-12T13:02:56.544Z,49.69
2022-12-12T13:05:36.553Z,49.04
2022-12-12T13:08:06.182Z,48.89
2022-12-12T13:10:33.612Z,48.20
2022-12-12T13:13:15.173Z,47.95
2022-12-12T13:15:46.667Z,48.50
2022-12-12T13:18:15.655Z,48.47
2022-12-12T13:20:49.765Z,48.47
2022-12-12T13:23:16.422Z,48.53
2022-12-12T13:26:02.838Z,48.89
2022-12-12T13:28:36.562Z,49.38
2022-12-12T13:31:13.246Z,49.38
2022-12-12T13:33:49.439Z,49.99
2022-12-12T13:36:30.162Z,50.34
2022-12-12T13:39:00.088Z,51.18
2022-12-12T13:41:27.222Z,50.07
2022-12-12T13:44:00.047Z,49.94
2022-12-12T13:46:27.321Z,49.44
2022-12-12T13:49:10.586Z,49.41
2022-12-12T13:51:40.729Z,49.88
2022-12-12T13:54:14.970Z,49.91
2022-12-12T13:56:45.800Z,49.28
2022-12-12T13:59:27.715Z,49.01
2022-12-12T14:02:00.903Z,48.36
2022-12-12T14:04:32.056Z,49.34
2022-12-12T14:07:04.034Z,49.60
2022-12-12T14:09:47.669Z,49.70
2022-12-12T14:12:21.995Z,49.60
2022-12-12T14:15:21.334Z,49.73
2022-12-12T14:17:56.247Z,49.51
2022-12-12T14:20:31.047Z,49.64
2022-12-12T14:23:09.247Z,49.31
2022-12-12T14:25:38.583Z,50.10
2022-12-12T14:28:25.256Z,50.43
2022-12-12T14:30:59.305Z,51.16
2022-12-12T14:33:49.293Z,51.52
2022-12-12T14:36:37.647Z,51.70
2022-12-12T14:39:07.230Z,51.22
2022-12-12T14:41:37.518Z,51.81
2022-12-12T14:44:37.261Z,52.45
2022-12-12T14:47:07.551Z,52.69
2022-12-12T14:49:34.145Z,52.30
2022-12-12T14:52:01.101Z,52.50
2022-12-12T14:54:28.390Z,51.99
2022-12-12T14:57:03.950Z,52.02
2022-12-12T14:59:38.016Z,52.13
2022-12-12T15:02:25.887Z,52.18
2022-12-12T15:05:04.198Z,52.39
2022-12-12T15:07:38.306Z,52.66
2022-12-12T15:10:27.845Z,52.79
2022-12-12T15:12:54.647Z,53.62
2022-12-12T15:15:27.612Z,53.18
2022-12-12T15:17:56.765Z,53.57
2022-12-12T15:20:26.642Z,53.67
2022-12-12T15:23:00.083Z,54.25
2022-12-12T15:25:30.766Z,53.70
2022-12-12T15:27:57.896Z,54.03
2022-12-12T15:30:33.619Z,54.10
2022-12-12T15:33:02.905Z,54.67
2022-12-12T15:35:29.666Z,54.65
2022-12-12T15:38:08.341Z,54.94
2022-12-12T15:40:39.613Z,54.37
2022-12-12T15:43:15.394Z,55.01
2022-12-12T15:45:46.623Z,54.85
2022-12-12T15:48:17.527Z,54.65
2022-12-12T15:50:44.038Z,54.33
2022-12-12T15:53:26.361Z,55.24
2022-12-12T15:56:14.445Z,55.40
2022-12-12T15:58:44.165Z,55.42
2022-12-12T16:01:20.313Z,54.96
2022-12-12T16:04:08.551Z,55.80
2022-12-12T16:06:48.369Z,56.23
2022-12-12T16:09:21.175Z,56.23
2022-12-12T16:11:58.673Z,55.93
2022-12-12T16:14:41.611Z,55.47
2022-12-12T16:17:16.182Z,56.02
2022-12-12T16:20:01.519Z,56.09
2022-12-12T16:22:44.670Z,55.86
2022-12-12T16:25:33.839Z,55.59
2022-12-12T16:28:12.463Z,56.02
2022-12-12T16:30:41.840Z,56.28
2022-12-12T16:33:23.027Z,55.96
2022-12-12T16:35:50.776Z,56.58
2022-12-12T16:38:18.426Z,55.96
2022-12-12T16:40:47.517Z,56.47
2022-12-12T16:43:17.888Z,55.66
2022-12-12T16:45:44.667Z,55.84
2022-12-12T16:48:22.952Z,57.08
2022-12-12T16:50:52.715Z,57.04
2022-12-12T16:53:20.107Z,57.03
2022-12-12T16:55:49.617Z,56.74
2022-12-12T16:58:17.079Z,56.73
2022-12-12T17:00:45.096Z,56.45
2022-12-12T17:03:14.954Z,56.28
2022-12-12T17:05:42.204Z,56.79
2022-12-12T17:08:09.042Z,56.29
2022-12-12T17:10:36.576Z,56.41
2022-12-12T17:13:12.684Z,56.53
2022-12-12T17:15:39.256Z,56.65
2022-12-12T17:18:05.851Z,56.22
2022-12-12T17:20:37.619Z,56.34
2022-12-12T17:23:27.951Z,56.50
2022-12-12T17:26:00.744Z,56.56
2022-12-12T17:28:30.683Z,56.78
2022-12-12T17:30:57.390Z,56.99
2022-12-12T17:33:24.019Z,56.75
2022-12-12T17:36:01.793Z,57.18
2022-12-12T17:38:30.528Z,56.75
2022-12-12T17:40:57.855Z,56.87
2022-12-12T17:43:25.634Z,56.77
2022-12-12T17:46:05.137Z,57.04
2022-12-12T17:48:32.793Z,56.32
2022-12-12T17:51:11.600Z,57.14
2022-12-12T17:53:39.270Z,57.87
2022-12-12T17:56:11.780Z,57.75
2022-12-12T17:58:41.445Z,57.91
2022-12-12T18:01:11.950Z,58.12
2022-12-12T18:03:38.825Z,57.68
2022-12-12T18:06:06.161Z,58.04
2022-12-12T18:08:33.735Z,58.46
2022-12-12T18:11:00.692Z,58.79
2022-12-12T18:13:54.735Z,58.68
2022-12-12T18:16:23.784Z,58.96
2022-12-12T18:18:54.244Z,58.35
2022-12-12T18:24:21.068Z,58.53
2022-12-12T18:26:56.082Z,57.82
2022-12-12T18:29:26.200Z,57.64
2022-12-12T18:31:55.833Z,57.96
2022-12-12T18:34:26.263Z,58.15
2022-12-12T18:36:54.073Z,58.17
2022-12-12T18:39:20.814Z,58.11
2022-12-12T18:41:47.821Z,58.59
2022-12-12T18:44:15.622Z,59.75
2022-12-12T18:46:43.675Z,59.37
2022-12-12T18:49:15.692Z,59.57
2022-12-12T18:51:43.529Z,59.78
2022-12-12T18:54:15.516Z,59.23
2022-12-12T18:56:44.766Z,58.75
2022-12-12T18:59:15.505Z,59.11
2022-12-12T19:01:45.724Z,59.34
2022-12-12T19:04:22.902Z,59.00
2022-12-12T19:06:51.784Z,59.13
2022-12-12T19:09:19.999Z,58.42
2022-12-12T19:11:47.374Z,58.39
2022-12-12T19:14:16.055Z,58.33
2022-12-12T19:16:44.081Z,58.65
2022-12-12T19:19:13.530Z,58.12
2022-12-12T19:21:41.447Z,59.20
2022-12-12T19:24:10.487Z,58.71
2022-12-12T19:26:39.496Z,58.86
2022-12-12T19:29:10.574Z,58.96
2022-12-12T19:31:37.593Z,59.25
2022-12-12T19:34:06.352Z,59.16
2022-12-12T19:36:44.821Z,59.35
2022-12-12T19:39:14.083Z,58.71
2022-12-12T19:41:41.696Z,59.28
2022-12-12T19:44:12.582Z,58.65
2022-12-12T19:46:46.317Z,58.71
2022-12-12T19:49:15.703Z,58.77
2022-12-12T19:51:45.791Z,58.30
2022-12-12T19:54:15.908Z,58.75
2022-12-12T19:56:44.597Z,58.83
2022-12-12T19:59:17.030Z,58.87
2022-12-12T20:01:44.069Z,58.47
2022-12-12T20:04:22.726Z,58.56
2022-12-12T20:06:51.708Z,58.15
2022-12-12T20:09:26.032Z,57.89
2022-12-12T20:11:55.719Z,57.63
2022-12-12T20:14:24.148Z,57.56
2022-12-12T20:16:51.922Z,58.45
2022-12-12T20:19:19.313Z,58.77
2022-12-12T20:22:05.918Z,58.44
2022-12-12T20:24:33.732Z,57.67
2022-12-12T20:27:03.698Z,57.84
2022-12-12T20:29:31.659Z,58.14
2022-12-12T20:31:59.861Z,58.79
2022-12-12T20:34:30.004Z,58.10
2022-12-12T20:36:59.380Z,58.43
2022-12-12T20:39:26.286Z,58.97
2022-12-12T20:41:54.002Z,59.26
2022-12-12T20:44:23.361Z,58.17
2022-12-12T20:46:51.034Z,58.25
2022-12-12T20:49:20.273Z,58.35
2022-12-12T20:51:58.349Z,57.59
2022-12-12T20:54:29.691Z,57.63
2022-12-12T20:57:03.153Z,57.41
2022-12-12T20:59:30.304Z,57.28
2022-12-12T21:01:57.032Z,57.94
2022-12-12T21:04:24.316Z,57.91
2022-12-12T21:06:52.005Z,57.51
2022-12-12T21:09:25.830Z,58.07
2022-12-12T21:11:58.229Z,57.84
2022-12-12T21:14:27.388Z,58.13
2022-12-12T21:16:54.461Z,57.99
2022-12-12T21:19:25.398Z,57.95
2022-12-12T21:21:53.425Z,58.26
2022-12-12T21:24:24.293Z,58.30
2022-12-12T21:26:51.305Z,58.76
2022-12-12T21:29:20.236Z,58.69
2022-12-12T21:31:51.924Z,59.05
2022-12-12T21:34:23.406Z,59.36
2022-12-12T21:37:00.436Z,59.26
2022-12-12T21:39:29.152Z,58.83
2022-12-12T21:41:56.668Z,58.58
2022-12-12T21:44:24.590Z,58.76
2022-12-12T21:46:51.708Z,58.73
2022-12-12T21:49:28.264Z,59.06
2022-12-12T21:51:59.747Z,59.37
2022-12-12T21:54:29.287Z,59.75
2022-12-12T21:57:03.218Z,59.10
2022-12-12T21:59:30.417Z,59.51
2022-12-12T22:02:00.190Z,59.69
2022-12-12T22:04:32.788Z,58.86
2022-12-12T22:07:02.010Z,58.96
2022-12-12T22:09:29.119Z,58.34
2022-12-12T22:12:03.133Z,59.22
2022-12-12T22:14:31.561Z,59.45
2022-12-12T22:16:58.739Z,58.70
2022-12-12T22:19:25.645Z,58.95
2022-12-12T22:21:55.327Z,58.94
2022-12-12T22:24:23.306Z,58.71
2022-12-12T22:26:50.776Z,58.56
2022-12-12T22:29:20.113Z,58.06
2022-12-12T22:31:50.369Z,58.48
2022-12-12T22:34:22.471Z,58.69
2022-12-12T22:36:53.847Z,58.12
2022-12-12T22:39:26.301Z,58.57
2022-12-12T22:41:55.393Z,58.08
2022-12-12T22:44:27.760Z,58.05
2022-12-12T22:46:55.868Z,57.70
2022-12-12T22:49:25.945Z,57.50
2022-12-12T22:51:54.649Z,57.55
2022-12-12T22:54:21.562Z,57.02
2022-12-12T22:56:51.296Z,57.39
2022-12-12T22:59:18.135Z,56.47
2022-12-12T23:01:44.891Z,56.56
2022-12-12T23:04:13.411Z,56.00
2022-12-12T23:06:41.376Z,55.87
2022-12-12T23:09:18.339Z,55.34
2022-12-12T23:11:46.129Z,55.42
2022-12-12T23:14:16.195Z,55.29
2022-12-12T23:16:44.341Z,55.37
2022-12-12T23:19:14.739Z,55.13
2022-12-12T23:21:42.067Z,54.91
2022-12-12T23:24:12.107Z,54.40
2022-12-12T23:26:39.169Z,54.81
2022-12-12T23:29:09.354Z,54.66
2022-12-12T23:31:37.953Z,55.15
2022-12-12T23:34:09.397Z,54.63
2022-12-12T23:36:38.679Z,55.09
2022-12-12T23:39:15.315Z,54.86
2022-12-12T23:41:46.730Z,54.56
2022-12-12T23:44:15.465Z,54.91
2022-12-12T23:46:47.261Z,54.52
2022-12-12T23:49:20.397Z,54.48
2022-12-12T23:51:50.328Z,54.06
2022-12-12T23:54:20.059Z,54.49
2022-12-12T23:56:50.449Z,55.01
2022-12-12T23:59:18.948Z,55.29
